sensor_id;sensor_type;location;lat;lon;timestamp;P1;P2;P0
57884;PMS5003;43703;51.060;-0.086;2023-01-29T00:00:03;31;30;
57884;PMS5003;43703;51.060;-0.086;2023-01-29T00:02:29;30;30;
57884;PMS5003;43703;51.060;-0.086;2023-01-29T00:04:54;34;33;
57884;PMS5003;43703;51.060;-0.086;2023-01-29T00:07:19;35;33;
57884;PMS5003;43703;51.060;-0.086;2023-01-29T00:09:44;37;34;
57884;PMS5003;43703;51.060;-0.086;2023-01-29T00:12:10;36;34;
57884;PMS5003;43703;51.060;-0.086;2023-01-29T00:14:35;36;36;
57884;PMS5003;43703;51.060;-0.086;2023-01-29T00:17:00;37;33;
57884;PMS5003;43703;51.060;-0.086;2023-01-29T00:19:25;35;34;
57884;PMS5003;43703;51.060;-0.086;2023-01-29T00:21:51;32;32;
57884;PMS5003;43703;51.060;-0.086;2023-01-29T00:24:16;34;29;
57884;PMS5003;43703;51.060;-0.086;2023-01-29T00:26:42;36;31;
57884;PMS5003;43703;51.060;-0.086;2023-01-29T00:29:07;34;33;
57884;PMS5003;43703;51.060;-0.086;2023-01-29T00:31:34;32;28;
57884;PMS5003;43703;51.060;-0.086;2023-01-29T00:34:03;36;35;
57884;PMS5003;43703;51.060;-0.086;2023-01-29T00:36:23;35;32;
57884;PMS5003;43703;51.060;-0.086;2023-01-29T00:38:53;36;32;
57884;PMS5003;43703;51.060;-0.086;2023-01-29T00:41:14;37;35;
57884;PMS5003;43703;51.060;-0.086;2023-01-29T00:43:39;32;29;
57884;PMS5003;43703;51.060;-0.086;2023-01-29T00:46:05;38;36;
57884;PMS5003;43703;51.060;-0.086;2023-01-29T00:48:31;32;32;
57884;PMS5003;43703;51.060;-0.086;2023-01-29T00:50:56;37;31;
57884;PMS5003;43703;51.060;-0.086;2023-01-29T00:53:21;30;29;
57884;PMS5003;43703;51.060;-0.086;2023-01-29T00:55:46;37;35;
57884;PMS5003;43703;51.060;-0.086;2023-01-29T00:58:12;37;33;
57884;PMS5003;43703;51.060;-0.086;2023-01-29T01:00:37;38;33;
57884;PMS5003;43703;51.060;-0.086;2023-01-29T01:03:03;37;34;
57884;PMS5003;43703;51.060;-0.086;2023-01-29T01:05:28;33;32;
57884;PMS5003;43703;51.060;-0.086;2023-01-29T01:07:54;40;39;
57884;PMS5003;43703;51.060;-0.086;2023-01-29T01:10:20;37;34;
57884;PMS5003;43703;51.060;-0.086;2023-01-29T01:12:45;35;35;
57884;PMS5003;43703;51.060;-0.086;2023-01-29T01:15:10;39;37;
57884;PMS5003;43703;51.060;-0.086;2023-01-29T01:17:35;35;33;
57884;PMS5003;43703;51.060;-0.086;2023-01-29T01:20:01;37;37;
57884;PMS5003;43703;51.060;-0.086;2023-01-29T01:22:27;35;35;
57884;PMS5003;43703;51.060;-0.086;2023-01-29T01:24:51;33;30;
57884;PMS5003;43703;51.060;-0.086;2023-01-29T01:27:16;40;39;
57884;PMS5003;43703;51.060;-0.086;2023-01-29T01:29:41;39;37;
57884;PMS5003;43703;51.060;-0.086;2023-01-29T01:32:07;40;34;
57884;PMS5003;43703;51.060;-0.086;2023-01-29T01:34:33;37;36;
57884;PMS5003;43703;51.060;-0.086;2023-01-29T01:36:58;40;35;
57884;PMS5003;43703;51.060;-0.086;2023-01-29T01:39:23;31;31;
57884;PMS5003;43703;51.060;-0.086;2023-01-29T01:41:49;41;36;
57884;PMS5003;43703;51.060;-0.086;2023-01-29T01:46:45;41;38;
57884;PMS5003;43703;51.060;-0.086;2023-01-29T01:49:06;38;35;
57884;PMS5003;43703;51.060;-0.086;2023-01-29T01:51:31;39;37;
57884;PMS5003;43703;51.060;-0.086;2023-01-29T01:53:56;34;31;
57884;PMS5003;43703;51.060;-0.086;2023-01-29T01:56:22;28;28;
57884;PMS5003;43703;51.060;-0.086;2023-01-29T01:58:47;32;31;
57884;PMS5003;43703;51.060;-0.086;2023-01-29T02:01:12;35;33;
57884;PMS5003;43703;51.060;-0.086;2023-01-29T02:03:39;37;34;
57884;PMS5003;43703;51.060;-0.086;2023-01-29T02:06:04;38;32;
57884;PMS5003;43703;51.060;-0.086;2023-01-29T02:08:31;33;31;
57884;PMS5003;43703;51.060;-0.086;2023-01-29T02:10:55;39;33;
57884;PMS5003;43703;51.060;-0.086;2023-01-29T02:13:20;36;35;
57884;PMS5003;43703;51.060;-0.086;2023-01-29T02:15:45;34;33;
57884;PMS5003;43703;51.060;-0.086;2023-01-29T02:18:10;37;33;
57884;PMS5003;43703;51.060;-0.086;2023-01-29T02:20:36;39;38;
57884;PMS5003;43703;51.060;-0.086;2023-01-29T02:23:07;34;32;
57884;PMS5003;43703;51.060;-0.086;2023-01-29T02:25:34;42;39;
57884;PMS5003;43703;51.060;-0.086;2023-01-29T02:27:59;41;33;
57884;PMS5003;43703;51.060;-0.086;2023-01-29T02:30:19;35;33;
57884;PMS5003;43703;51.060;-0.086;2023-01-29T02:32:45;34;33;
57884;PMS5003;43703;51.060;-0.086;2023-01-29T02:35:12;37;37;
57884;PMS5003;43703;51.060;-0.086;2023-01-29T02:37:35;44;37;
57884;PMS5003;43703;51.060;-0.086;2023-01-29T02:40:02;37;36;
57884;PMS5003;43703;51.060;-0.086;2023-01-29T02:42:26;37;35;
57884;PMS5003;43703;51.060;-0.086;2023-01-29T02:44:51;30;28;
57884;PMS5003;43703;51.060;-0.086;2023-01-29T02:47:16;40;36;
57884;PMS5003;43703;51.060;-0.086;2023-01-29T02:49:42;40;39;
57884;PMS5003;43703;51.060;-0.086;2023-01-29T02:52:08;34;34;
57884;PMS5003;43703;51.060;-0.086;2023-01-29T02:54:36;36;35;
57884;PMS5003;43703;51.060;-0.086;2023-01-29T02:56:58;37;37;
57884;PMS5003;43703;51.060;-0.086;2023-01-29T02:59:24;41;35;
57884;PMS5003;43703;51.060;-0.086;2023-01-29T03:01:49;31;29;
57884;PMS5003;43703;51.060;-0.086;2023-01-29T03:04:15;37;32;
57884;PMS5003;43703;51.060;-0.086;2023-01-29T03:06:40;41;39;
57884;PMS5003;43703;51.060;-0.086;2023-01-29T03:09:05;42;38;
57884;PMS5003;43703;51.060;-0.086;2023-01-29T03:11:35;40;36;
57884;PMS5003;43703;51.060;-0.086;2023-01-29T03:13:55;40;36;
57884;PMS5003;43703;51.060;-0.086;2023-01-29T03:16:21;36;35;
57884;PMS5003;43703;51.060;-0.086;2023-01-29T03:18:48;43;40;
57884;PMS5003;43703;51.060;-0.086;2023-01-29T03:21:12;39;38;
57884;PMS5003;43703;51.060;-0.086;2023-01-29T03:23:36;44;41;
57884;PMS5003;43703;51.060;-0.086;2023-01-29T03:26:02;44;43;
57884;PMS5003;43703;51.060;-0.086;2023-01-29T03:28:27;44;40;
57884;PMS5003;43703;51.060;-0.086;2023-01-29T03:30:53;44;40;
57884;PMS5003;43703;51.060;-0.086;2023-01-29T03:33:18;46;42;
57884;PMS5003;43703;51.060;-0.086;2023-01-29T03:35:45;41;41;
57884;PMS5003;43703;51.060;-0.086;2023-01-29T03:38:09;40;39;
57884;PMS5003;43703;51.060;-0.086;2023-01-29T03:40:34;36;36;
57884;PMS5003;43703;51.060;-0.086;2023-01-29T03:43:02;38;36;
57884;PMS5003;43703;51.060;-0.086;2023-01-29T03:45:26;40;37;
57884;PMS5003;43703;51.060;-0.086;2023-01-29T03:47:50;38;38;
57884;PMS5003;43703;51.060;-0.086;2023-01-29T03:50:19;40;38;
57884;PMS5003;43703;51.060;-0.086;2023-01-29T03:52:41;35;32;
57884;PMS5003;43703;51.060;-0.086;2023-01-29T03:55:09;42;38;
57884;PMS5003;43703;51.060;-0.086;2023-01-29T03:57:33;41;39;
57884;PMS5003;43703;51.060;-0.086;2023-01-29T04:00:00;41;36;
57884;PMS5003;43703;51.060;-0.086;2023-01-29T04:02:24;41;39;
57884;PMS5003;43703;51.060;-0.086;2023-01-29T04:04:48;43;37;
57884;PMS5003;43703;51.060;-0.086;2023-01-29T04:07:15;36;34;
57884;PMS5003;43703;51.060;-0.086;2023-01-29T04:09:40;34;33;
57884;PMS5003;43703;51.060;-0.086;2023-01-29T04:12:04;40;35;
57884;PMS5003;43703;51.060;-0.086;2023-01-29T04:14:30;37;34;
57884;PMS5003;43703;51.060;-0.086;2023-01-29T04:16:55;42;38;
57884;PMS5003;43703;51.060;-0.086;2023-01-29T04:19:20;43;38;
57884;PMS5003;43703;51.060;-0.086;2023-01-29T04:21:45;35;33;
57884;PMS5003;43703;51.060;-0.086;2023-01-29T04:24:11;41;41;
57884;PMS5003;43703;51.060;-0.086;2023-01-29T04:26:41;40;36;
57884;PMS5003;43703;51.060;-0.086;2023-01-29T04:29:07;37;35;
57884;PMS5003;43703;51.060;-0.086;2023-01-29T04:31:30;47;41;
57884;PMS5003;43703;51.060;-0.086;2023-01-29T04:33:56;45;43;
57884;PMS5003;43703;51.060;-0.086;2023-01-29T04:36:23;46;43;
57884;PMS5003;43703;51.060;-0.086;2023-01-29T04:38:48;42;40;
57884;PMS5003;43703;51.060;-0.086;2023-01-29T04:41:10;46;42;
57884;PMS5003;43703;51.060;-0.086;2023-01-29T04:43:37;49;45;
57884;PMS5003;43703;51.060;-0.086;2023-01-29T04:46:05;52;46;
57884;PMS5003;43703;51.060;-0.086;2023-01-29T04:48:27;45;42;
57884;PMS5003;43703;51.060;-0.086;2023-01-29T04:50:53;41;39;
57884;PMS5003;43703;51.060;-0.086;2023-01-29T04:53:17;46;41;
57884;PMS5003;43703;51.060;-0.086;2023-01-29T04:55:44;42;40;
57884;PMS5003;43703;51.060;-0.086;2023-01-29T04:58:10;45;43;
57884;PMS5003;43703;51.060;-0.086;2023-01-29T05:00:34;41;39;
57884;PMS5003;43703;51.060;-0.086;2023-01-29T05:02:59;39;39;
57884;PMS5003;43703;51.060;-0.086;2023-01-29T05:05:24;43;41;
57884;PMS5003;43703;51.060;-0.086;2023-01-29T05:07:49;44;41;
57884;PMS5003;43703;51.060;-0.086;2023-01-29T05:10:15;46;43;
57884;PMS5003;43703;51.060;-0.086;2023-01-29T05:12:40;46;40;
57884;PMS5003;43703;51.060;-0.086;2023-01-29T05:15:07;48;47;
57884;PMS5003;43703;51.060;-0.086;2023-01-29T05:17:31;45;40;
57884;PMS5003;43703;51.060;-0.086;2023-01-29T05:19:56;44;43;
57884;PMS5003;43703;51.060;-0.086;2023-01-29T05:22:22;40;38;
57884;PMS5003;43703;51.060;-0.086;2023-01-29T05:24:47;38;35;
57884;PMS5003;43703;51.060;-0.086;2023-01-29T05:27:14;45;42;
57884;PMS5003;43703;51.060;-0.086;2023-01-29T05:29:38;49;40;
57884;PMS5003;43703;51.060;-0.086;2023-01-29T05:32:03;38;38;
57884;PMS5003;43703;51.060;-0.086;2023-01-29T05:34:33;38;36;
57884;PMS5003;43703;51.060;-0.086;2023-01-29T05:36:53;41;38;
57884;PMS5003;43703;51.060;-0.086;2023-01-29T05:39:20;36;36;
57884;PMS5003;43703;51.060;-0.086;2023-01-29T05:41:45;41;38;
57884;PMS5003;43703;51.060;-0.086;2023-01-29T05:44:10;37;36;
57884;PMS5003;43703;51.060;-0.086;2023-01-29T05:46:36;37;36;
57884;PMS5003;43703;51.060;-0.086;2023-01-29T05:49:01;38;34;
57884;PMS5003;43703;51.060;-0.086;2023-01-29T05:51:27;36;35;
57884;PMS5003;43703;51.060;-0.086;2023-01-29T05:53:53;40;39;
57884;PMS5003;43703;51.060;-0.086;2023-01-29T05:56:18;35;35;
57884;PMS5003;43703;51.060;-0.086;2023-01-29T05:58:43;42;38;
57884;PMS5003;43703;51.060;-0.086;2023-01-29T06:01:10;47;42;
57884;PMS5003;43703;51.060;-0.086;2023-01-29T06:03:34;39;38;
57884;PMS5003;43703;51.060;-0.086;2023-01-29T06:06:00;34;33;
57884;PMS5003;43703;51.060;-0.086;2023-01-29T06:08:25;43;40;
57884;PMS5003;43703;51.060;-0.086;2023-01-29T06:10:51;40;39;
57884;PMS5003;43703;51.060;-0.086;2023-01-29T06:13:17;41;38;
57884;PMS5003;43703;51.060;-0.086;2023-01-29T06:15:42;45;42;
57884;PMS5003;43703;51.060;-0.086;2023-01-29T06:18:07;49;45;
57884;PMS5003;43703;51.060;-0.086;2023-01-29T06:20:32;46;40;
57884;PMS5003;43703;51.060;-0.086;2023-01-29T06:22:58;45;44;
57884;PMS5003;43703;51.060;-0.086;2023-01-29T06:25:23;45;44;
57884;PMS5003;43703;51.060;-0.086;2023-01-29T06:27:49;38;37;
57884;PMS5003;43703;51.060;-0.086;2023-01-29T06:30:14;44;40;
57884;PMS5003;43703;51.060;-0.086;2023-01-29T06:32:39;43;40;
57884;PMS5003;43703;51.060;-0.086;2023-01-29T06:35:05;43;40;
57884;PMS5003;43703;51.060;-0.086;2023-01-29T06:37:30;42;39;
57884;PMS5003;43703;51.060;-0.086;2023-01-29T06:39:56;43;38;
57884;PMS5003;43703;51.060;-0.086;2023-01-29T06:42:21;44;40;
57884;PMS5003;43703;51.060;-0.086;2023-01-29T06:44:46;48;43;
57884;PMS5003;43703;51.060;-0.086;2023-01-29T06:47:12;44;39;
57884;PMS5003;43703;51.060;-0.086;2023-01-29T06:49:38;38;37;
57884;PMS5003;43703;51.060;-0.086;2023-01-29T06:52:03;38;36;
57884;PMS5003;43703;51.060;-0.086;2023-01-29T06:54:28;39;37;
57884;PMS5003;43703;51.060;-0.086;2023-01-29T06:56:54;43;38;
57884;PMS5003;43703;51.060;-0.086;2023-01-29T06:59:19;42;36;
57884;PMS5003;43703;51.060;-0.086;2023-01-29T07:01:44;46;39;
57884;PMS5003;43703;51.060;-0.086;2023-01-29T07:04:10;43;43;
57884;PMS5003;43703;51.060;-0.086;2023-01-29T07:06:36;46;41;
57884;PMS5003;43703;51.060;-0.086;2023-01-29T07:09:00;39;38;
57884;PMS5003;43703;51.060;-0.086;2023-01-29T07:11:26;44;43;
57884;PMS5003;43703;51.060;-0.086;2023-01-29T07:13:51;46;43;
57884;PMS5003;43703;51.060;-0.086;2023-01-29T07:16:17;42;42;
57884;PMS5003;43703;51.060;-0.086;2023-01-29T07:18:42;42;39;
57884;PMS5003;43703;51.060;-0.086;2023-01-29T07:21:08;43;35;
57884;PMS5003;43703;51.060;-0.086;2023-01-29T07:23:34;40;40;
57884;PMS5003;43703;51.060;-0.086;2023-01-29T07:25:59;40;39;
57884;PMS5003;43703;51.060;-0.086;2023-01-29T07:28:24;39;39;
57884;PMS5003;43703;51.060;-0.086;2023-01-29T07:30:53;49;44;
57884;PMS5003;43703;51.060;-0.086;2023-01-29T07:33:15;41;37;
57884;PMS5003;43703;51.060;-0.086;2023-01-29T07:35:41;42;41;
57884;PMS5003;43703;51.060;-0.086;2023-01-29T07:38:06;44;41;
57884;PMS5003;43703;51.060;-0.086;2023-01-29T07:40:31;43;39;
57884;PMS5003;43703;51.060;-0.086;2023-01-29T07:42:57;48;40;
57884;PMS5003;43703;51.060;-0.086;2023-01-29T07:45:22;36;33;
57884;PMS5003;43703;51.060;-0.086;2023-01-29T07:47:51;40;38;
57884;PMS5003;43703;51.060;-0.086;2023-01-29T07:50:13;38;37;
57884;PMS5003;43703;51.060;-0.086;2023-01-29T07:52:38;41;34;
57884;PMS5003;43703;51.060;-0.086;2023-01-29T07:55:04;35;34;
57884;PMS5003;43703;51.060;-0.086;2023-01-29T07:57:28;36;36;
57884;PMS5003;43703;51.060;-0.086;2023-01-29T07:59:54;36;35;
57884;PMS5003;43703;51.060;-0.086;2023-01-29T08:02:19;37;33;
57884;PMS5003;43703;51.060;-0.086;2023-01-29T08:04:44;37;33;
57884;PMS5003;43703;51.060;-0.086;2023-01-29T08:07:10;35;30;
57884;PMS5003;43703;51.060;-0.086;2023-01-29T08:09:36;34;34;
57884;PMS5003;43703;51.060;-0.086;2023-01-29T08:12:01;35;35;
57884;PMS5003;43703;51.060;-0.086;2023-01-29T08:14:27;37;35;
57884;PMS5003;43703;51.060;-0.086;2023-01-29T08:16:53;39;34;
57884;PMS5003;43703;51.060;-0.086;2023-01-29T08:19:18;37;32;
57884;PMS5003;43703;51.060;-0.086;2023-01-29T08:21:43;38;33;
57884;PMS5003;43703;51.060;-0.086;2023-01-29T08:24:08;36;36;
57884;PMS5003;43703;51.060;-0.086;2023-01-29T08:26:34;41;36;
57884;PMS5003;43703;51.060;-0.086;2023-01-29T08:29:00;33;30;
57884;PMS5003;43703;51.060;-0.086;2023-01-29T08:31:25;32;29;
57884;PMS5003;43703;51.060;-0.086;2023-01-29T08:33:52;35;35;
57884;PMS5003;43703;51.060;-0.086;2023-01-29T08:36:16;30;29;
57884;PMS5003;43703;51.060;-0.086;2023-01-29T08:38:41;30;30;
57884;PMS5003;43703;51.060;-0.086;2023-01-29T08:41:07;32;32;
57884;PMS5003;43703;51.060;-0.086;2023-01-29T08:43:32;30;28;
57884;PMS5003;43703;51.060;-0.086;2023-01-29T08:45:57;31;29;
57884;PMS5003;43703;51.060;-0.086;2023-01-29T08:48:22;29;29;
57884;PMS5003;43703;51.060;-0.086;2023-01-29T08:50:47;28;25;
57884;PMS5003;43703;51.060;-0.086;2023-01-29T08:53:12;30;28;
57884;PMS5003;43703;51.060;-0.086;2023-01-29T08:55:38;29;29;
57884;PMS5003;43703;51.060;-0.086;2023-01-29T08:58:03;29;28;
57884;PMS5003;43703;51.060;-0.086;2023-01-29T09:00:28;25;24;
57884;PMS5003;43703;51.060;-0.086;2023-01-29T09:02:53;27;24;
57884;PMS5003;43703;51.060;-0.086;2023-01-29T09:05:19;26;25;
57884;PMS5003;43703;51.060;-0.086;2023-01-29T09:07:44;29;26;
57884;PMS5003;43703;51.060;-0.086;2023-01-29T09:10:10;24;19;
57884;PMS5003;43703;51.060;-0.086;2023-01-29T09:12:35;24;24;
57884;PMS5003;43703;51.060;-0.086;2023-01-29T09:15:00;23;22;
57884;PMS5003;43703;51.060;-0.086;2023-01-29T09:17:25;24;23;
57884;PMS5003;43703;51.060;-0.086;2023-01-29T09:19:51;25;25;
57884;PMS5003;43703;51.060;-0.086;2023-01-29T09:22:17;26;22;
57884;PMS5003;43703;51.060;-0.086;2023-01-29T09:24:42;25;23;
57884;PMS5003;43703;51.060;-0.086;2023-01-29T09:27:07;29;24;
57884;PMS5003;43703;51.060;-0.086;2023-01-29T09:29:33;22;21;
57884;PMS5003;43703;51.060;-0.086;2023-01-29T09:31:58;24;23;
57884;PMS5003;43703;51.060;-0.086;2023-01-29T09:34:24;20;19;
57884;PMS5003;43703;51.060;-0.086;2023-01-29T09:36:50;20;17;
57884;PMS5003;43703;51.060;-0.086;2023-01-29T09:39:14;18;17;
57884;PMS5003;43703;51.060;-0.086;2023-01-29T09:41:43;18;17;
57884;PMS5003;43703;51.060;-0.086;2023-01-29T09:44:10;22;22;
57884;PMS5003;43703;51.060;-0.086;2023-01-29T09:46:32;22;20;
57884;PMS5003;43703;51.060;-0.086;2023-01-29T09:48:57;17;17;
57884;PMS5003;43703;51.060;-0.086;2023-01-29T09:51:24;21;21;
57884;PMS5003;43703;51.060;-0.086;2023-01-29T09:53:47;22;20;
57884;PMS5003;43703;51.060;-0.086;2023-01-29T09:56:13;23;22;
57884;PMS5003;43703;51.060;-0.086;2023-01-29T09:58:37;26;21;
57884;PMS5003;43703;51.060;-0.086;2023-01-29T10:01:07;20;18;
57884;PMS5003;43703;51.060;-0.086;2023-01-29T10:03:33;17;17;
57884;PMS5003;43703;51.060;-0.086;2023-01-29T10:05:58;25;19;
57884;PMS5003;43703;51.060;-0.086;2023-01-29T10:08:25;25;22;
57884;PMS5003;43703;51.060;-0.086;2023-01-29T10:10:47;21;20;
57884;PMS5003;43703;51.060;-0.086;2023-01-29T10:13:10;21;17;
57884;PMS5003;43703;51.060;-0.086;2023-01-29T10:15:37;21;19;
57884;PMS5003;43703;51.060;-0.086;2023-01-29T10:18:04;22;21;
57884;PMS5003;43703;51.060;-0.086;2023-01-29T10:20:32;20;18;
57884;PMS5003;43703;51.060;-0.086;2023-01-29T10:22:54;18;17;
57884;PMS5003;43703;51.060;-0.086;2023-01-29T10:25:17;23;21;
57884;PMS5003;43703;51.060;-0.086;2023-01-29T10:27:44;22;19;
57884;PMS5003;43703;51.060;-0.086;2023-01-29T10:30:16;21;19;
57884;PMS5003;43703;51.060;-0.086;2023-01-29T10:32:33;19;18;
57884;PMS5003;43703;51.060;-0.086;2023-01-29T10:34:59;18;18;
57884;PMS5003;43703;51.060;-0.086;2023-01-29T10:37:25;15;15;
57884;PMS5003;43703;51.060;-0.086;2023-01-29T10:39:49;13;12;
57884;PMS5003;43703;51.060;-0.086;2023-01-29T10:42:16;17;15;
57884;PMS5003;43703;51.060;-0.086;2023-01-29T10:44:44;16;15;
57884;PMS5003;43703;51.060;-0.086;2023-01-29T10:47:10;13;13;
57884;PMS5003;43703;51.060;-0.086;2023-01-29T10:52:02;18;18;
57884;PMS5003;43703;51.060;-0.086;2023-01-29T10:54:27;16;14;
57884;PMS5003;43703;51.060;-0.086;2023-01-29T10:59:17;15;13;
57884;PMS5003;43703;51.060;-0.086;2023-01-29T11:01:37;16;14;
57884;PMS5003;43703;51.060;-0.086;2023-01-29T11:04:04;15;13;
57884;PMS5003;43703;51.060;-0.086;2023-01-29T11:06:29;17;17;
57884;PMS5003;43703;51.060;-0.086;2023-01-29T11:08:55;24;20;
57884;PMS5003;43703;51.060;-0.086;2023-01-29T11:11:20;18;18;
57884;PMS5003;43703;51.060;-0.086;2023-01-29T11:13:46;14;14;
57884;PMS5003;43703;51.060;-0.086;2023-01-29T11:16:10;21;20;
57884;PMS5003;43703;51.060;-0.086;2023-01-29T11:21:01;18;17;
57884;PMS5003;43703;51.060;-0.086;2023-01-29T11:23:26;16;16;
57884;PMS5003;43703;51.060;-0.086;2023-01-29T11:25:51;17;15;
57884;PMS5003;43703;51.060;-0.086;2023-01-29T11:28:16;17;15;
57884;PMS5003;43703;51.060;-0.086;2023-01-29T11:30:41;19;16;
57884;PMS5003;43703;51.060;-0.086;2023-01-29T11:33:07;18;15;
57884;PMS5003;43703;51.060;-0.086;2023-01-29T11:35:32;15;15;
57884;PMS5003;43703;51.060;-0.086;2023-01-29T11:38:05;19;18;
57884;PMS5003;43703;51.060;-0.086;2023-01-29T11:40:30;17;17;
57884;PMS5003;43703;51.060;-0.086;2023-01-29T11:42:49;18;17;
57884;PMS5003;43703;51.060;-0.086;2023-01-29T11:47:39;21;21;
57884;PMS5003;43703;51.060;-0.086;2023-01-29T11:50:05;23;21;
57884;PMS5003;43703;51.060;-0.086;2023-01-29T11:52:33;19;19;
57884;PMS5003;43703;51.060;-0.086;2023-01-29T11:54:56;26;23;
57884;PMS5003;43703;51.060;-0.086;2023-01-29T11:57:22;19;18;
57884;PMS5003;43703;51.060;-0.086;2023-01-29T11:59:45;18;17;
57884;PMS5003;43703;51.060;-0.086;2023-01-29T12:02:15;20;16;
57884;PMS5003;43703;51.060;-0.086;2023-01-29T12:04:36;19;16;
57884;PMS5003;43703;51.060;-0.086;2023-01-29T12:07:01;19;17;
57884;PMS5003;43703;51.060;-0.086;2023-01-29T12:09:26;18;17;
57884;PMS5003;43703;51.060;-0.086;2023-01-29T12:11:52;19;16;
57884;PMS5003;43703;51.060;-0.086;2023-01-29T12:16:43;17;16;
57884;PMS5003;43703;51.060;-0.086;2023-01-29T12:19:08;16;15;
57884;PMS5003;43703;51.060;-0.086;2023-01-29T12:21:34;22;20;
57884;PMS5003;43703;51.060;-0.086;2023-01-29T12:24:00;17;16;
57884;PMS5003;43703;51.060;-0.086;2023-01-29T12:26:26;18;15;
57884;PMS5003;43703;51.060;-0.086;2023-01-29T12:28:52;16;16;
57884;PMS5003;43703;51.060;-0.086;2023-01-29T12:31:20;14;13;
57884;PMS5003;43703;51.060;-0.086;2023-01-29T12:33:42;18;16;
57884;PMS5003;43703;51.060;-0.086;2023-01-29T12:36:08;14;14;
57884;PMS5003;43703;51.060;-0.086;2023-01-29T12:38:31;17;17;
57884;PMS5003;43703;51.060;-0.086;2023-01-29T12:40:57;15;14;
57884;PMS5003;43703;51.060;-0.086;2023-01-29T12:43:23;14;13;
57884;PMS5003;43703;51.060;-0.086;2023-01-29T12:45:48;20;19;
57884;PMS5003;43703;51.060;-0.086;2023-01-29T12:48:19;18;16;
57884;PMS5003;43703;51.060;-0.086;2023-01-29T12:50:39;16;13;
57884;PMS5003;43703;51.060;-0.086;2023-01-29T12:53:05;16;15;
57884;PMS5003;43703;51.060;-0.086;2023-01-29T12:55:31;17;17;
57884;PMS5003;43703;51.060;-0.086;2023-01-29T12:57:55;15;13;
57884;PMS5003;43703;51.060;-0.086;2023-01-29T13:00:21;11;11;
57884;PMS5003;43703;51.060;-0.086;2023-01-29T13:02:47;14;13;
57884;PMS5003;43703;51.060;-0.086;2023-01-29T13:05:14;14;12;
57884;PMS5003;43703;51.060;-0.086;2023-01-29T13:07:36;9;9;
57884;PMS5003;43703;51.060;-0.086;2023-01-29T13:10:03;17;15;
57884;PMS5003;43703;51.060;-0.086;2023-01-29T13:12:26;16;16;
57884;PMS5003;43703;51.060;-0.086;2023-01-29T13:14:53;14;14;
57884;PMS5003;43703;51.060;-0.086;2023-01-29T13:17:18;21;19;
57884;PMS5003;43703;51.060;-0.086;2023-01-29T13:19:42;17;16;
57884;PMS5003;43703;51.060;-0.086;2023-01-29T13:22:10;17;17;
57884;PMS5003;43703;51.060;-0.086;2023-01-29T13:24:34;18;15;
57884;PMS5003;43703;51.060;-0.086;2023-01-29T13:26:58;14;14;
57884;PMS5003;43703;51.060;-0.086;2023-01-29T13:29:24;19;17;
57884;PMS5003;43703;51.060;-0.086;2023-01-29T13:31:49;16;16;
57884;PMS5003;43703;51.060;-0.086;2023-01-29T13:34:14;18;14;
57884;PMS5003;43703;51.060;-0.086;2023-01-29T13:36:40;17;16;
57884;PMS5003;43703;51.060;-0.086;2023-01-29T13:39:05;15;13;
57884;PMS5003;43703;51.060;-0.086;2023-01-29T13:41:30;15;13;
57884;PMS5003;43703;51.060;-0.086;2023-01-29T13:43:55;16;13;
57884;PMS5003;43703;51.060;-0.086;2023-01-29T13:46:20;17;15;
57884;PMS5003;43703;51.060;-0.086;2023-01-29T13:48:46;13;13;
57884;PMS5003;43703;51.060;-0.086;2023-01-29T13:51:11;15;15;
57884;PMS5003;43703;51.060;-0.086;2023-01-29T13:53:37;17;14;
57884;PMS5003;43703;51.060;-0.086;2023-01-29T14:00:52;16;14;
57884;PMS5003;43703;51.060;-0.086;2023-01-29T14:05:44;16;14;
57884;PMS5003;43703;51.060;-0.086;2023-01-29T14:10:34;17;15;
57884;PMS5003;43703;51.060;-0.086;2023-01-29T14:15:29;14;14;
57884;PMS5003;43703;51.060;-0.086;2023-01-29T14:20:16;16;16;
57884;PMS5003;43703;51.060;-0.086;2023-01-29T14:22:40;12;12;
57884;PMS5003;43703;51.060;-0.086;2023-01-29T14:25:06;15;14;
57884;PMS5003;43703;51.060;-0.086;2023-01-29T14:27:30;12;10;
57884;PMS5003;43703;51.060;-0.086;2023-01-29T14:29:58;14;14;
57884;PMS5003;43703;51.060;-0.086;2023-01-29T14:32:21;14;14;
57884;PMS5003;43703;51.060;-0.086;2023-01-29T14:34:46;13;12;
57884;PMS5003;43703;51.060;-0.086;2023-01-29T14:39:37;11;11;
57884;PMS5003;43703;51.060;-0.086;2023-01-29T14:42:01;12;12;
57884;PMS5003;43703;51.060;-0.086;2023-01-29T14:46:51;12;11;
57884;PMS5003;43703;51.060;-0.086;2023-01-29T14:51:42;14;12;
57884;PMS5003;43703;51.060;-0.086;2023-01-29T14:54:13;14;12;
57884;PMS5003;43703;51.060;-0.086;2023-01-29T14:56:32;12;11;
57884;PMS5003;43703;51.060;-0.086;2023-01-29T14:59:01;12;12;
57884;PMS5003;43703;51.060;-0.086;2023-01-29T15:01:24;14;12;
57884;PMS5003;43703;51.060;-0.086;2023-01-29T15:03:49;11;11;
57884;PMS5003;43703;51.060;-0.086;2023-01-29T15:06:14;15;14;
57884;PMS5003;43703;51.060;-0.086;2023-01-29T15:08:39;13;13;
57884;PMS5003;43703;51.060;-0.086;2023-01-29T15:11:06;13;13;
57884;PMS5003;43703;51.060;-0.086;2023-01-29T15:13:31;11;11;
57884;PMS5003;43703;51.060;-0.086;2023-01-29T15:15:55;11;11;
57884;PMS5003;43703;51.060;-0.086;2023-01-29T15:18:22;12;12;
57884;PMS5003;43703;51.060;-0.086;2023-01-29T15:20:45;14;14;
57884;PMS5003;43703;51.060;-0.086;2023-01-29T15:25:36;16;16;
57884;PMS5003;43703;51.060;-0.086;2023-01-29T15:28:00;13;13;
57884;PMS5003;43703;51.060;-0.086;2023-01-29T15:30:28;13;11;
57884;PMS5003;43703;51.060;-0.086;2023-01-29T15:32:50;16;14;
57884;PMS5003;43703;51.060;-0.086;2023-01-29T15:35:21;16;15;
57884;PMS5003;43703;51.060;-0.086;2023-01-29T15:37:41;12;11;
57884;PMS5003;43703;51.060;-0.086;2023-01-29T15:40:11;10;10;
57884;PMS5003;43703;51.060;-0.086;2023-01-29T15:44:57;8;8;
57884;PMS5003;43703;51.060;-0.086;2023-01-29T15:47:23;11;11;
57884;PMS5003;43703;51.060;-0.086;2023-01-29T15:49:46;10;10;
57884;PMS5003;43703;51.060;-0.086;2023-01-29T15:52:13;11;9;
57884;PMS5003;43703;51.060;-0.086;2023-01-29T15:54:36;10;10;
57884;PMS5003;43703;51.060;-0.086;2023-01-29T15:57:01;14;12;
57884;PMS5003;43703;51.060;-0.086;2023-01-29T15:59:28;15;15;
57884;PMS5003;43703;51.060;-0.086;2023-01-29T16:01:52;12;11;
57884;PMS5003;43703;51.060;-0.086;2023-01-29T16:04:18;10;10;
57884;PMS5003;43703;51.060;-0.086;2023-01-29T16:06:42;10;10;
57884;PMS5003;43703;51.060;-0.086;2023-01-29T16:09:09;9;9;
57884;PMS5003;43703;51.060;-0.086;2023-01-29T16:11:32;8;7;
57884;PMS5003;43703;51.060;-0.086;2023-01-29T16:13:57;9;9;
57884;PMS5003;43703;51.060;-0.086;2023-01-29T16:16:23;9;9;
57884;PMS5003;43703;51.060;-0.086;2023-01-29T16:18:47;10;10;
57884;PMS5003;43703;51.060;-0.086;2023-01-29T16:21:13;9;9;
57884;PMS5003;43703;51.060;-0.086;2023-01-29T16:23:39;9;8;
57884;PMS5003;43703;51.060;-0.086;2023-01-29T16:26:04;11;9;
57884;PMS5003;43703;51.060;-0.086;2023-01-29T16:28:27;6;6;